sensor_id;sensor_type;location;lat;lon;timestamp;P1;durP1;ratioP1;P2;durP2;ratioP2
6638;SDS011;3355;52.882;8.430;2023-04-15T00:00:17;6.13;;;4.23;;
6638;SDS011;3355;52.882;8.430;2023-04-15T00:02:44;7.50;;;4.53;;
6638;SDS011;3355;52.882;8.430;2023-04-15T00:05:12;6.10;;;4.93;;
6638;SDS011;3355;52.882;8.430;2023-04-15T00:07:38;6.47;;;4.73;;
6638;SDS011;3355;52.882;8.430;2023-04-15T00:10:06;7.20;;;4.10;;
6638;SDS011;3355;52.882;8.430;2023-04-15T00:12:33;9.27;;;4.40;;
6638;SDS011;3355;52.882;8.430;2023-04-15T00:15:02;7.10;;;5.00;;
6638;SDS011;3355;52.882;8.430;2023-04-15T00:17:29;5.50;;;4.03;;
6638;SDS011;3355;52.882;8.430;2023-04-15T00:19:56;4.50;;;3.90;;
6638;SDS011;3355;52.882;8.430;2023-04-15T00:22:23;5.80;;;4.50;;
6638;SDS011;3355;52.882;8.430;2023-04-15T00:24:51;5.83;;;4.80;;
6638;SDS011;3355;52.882;8.430;2023-04-15T00:27:18;5.53;;;4.60;;
6638;SDS011;3355;52.882;8.430;2023-04-15T00:29:45;8.87;;;5.73;;
6638;SDS011;3355;52.882;8.430;2023-04-15T00:32:14;5.00;;;4.50;;
6638;SDS011;3355;52.882;8.430;2023-04-15T00:34:40;5.23;;;4.47;;
6638;SDS011;3355;52.882;8.430;2023-04-15T00:37:08;5.03;;;4.27;;
6638;SDS011;3355;52.882;8.430;2023-04-15T00:39:34;6.50;;;5.00;;
6638;SDS011;3355;52.882;8.430;2023-04-15T00:42:01;5.10;;;4.60;;
6638;SDS011;3355;52.882;8.430;2023-04-15T00:44:29;6.57;;;5.80;;
6638;SDS011;3355;52.882;8.430;2023-04-15T00:47:04;7.10;;;5.53;;
6638;SDS011;3355;52.882;8.430;2023-04-15T00:49:32;7.00;;;5.67;;
6638;SDS011;3355;52.882;8.430;2023-04-15T00:51:59;6.10;;;5.50;;
6638;SDS011;3355;52.882;8.430;2023-04-15T00:54:25;7.60;;;5.27;;
6638;SDS011;3355;52.882;8.430;2023-04-15T00:56:52;6.67;;;5.53;;
6638;SDS011;3355;52.882;8.430;2023-04-15T00:59:19;7.00;;;6.27;;
6638;SDS011;3355;52.882;8.430;2023-04-15T01:01:46;7.83;;;5.87;;
6638;SDS011;3355;52.882;8.430;2023-04-15T01:04:14;6.57;;;5.57;;
6638;SDS011;3355;52.882;8.430;2023-04-15T01:06:45;9.20;;;5.00;;
6638;SDS011;3355;52.882;8.430;2023-04-15T01:09:12;5.90;;;5.30;;
6638;SDS011;3355;52.882;8.430;2023-04-15T01:11:39;7.10;;;5.47;;
6638;SDS011;3355;52.882;8.430;2023-04-15T01:14:05;6.50;;;5.60;;
6638;SDS011;3355;52.882;8.430;2023-04-15T01:16:33;7.63;;;5.80;;
6638;SDS011;3355;52.882;8.430;2023-04-15T01:19:00;11.93;;;5.97;;
6638;SDS011;3355;52.882;8.430;2023-04-15T01:21:27;5.57;;;5.07;;
6638;SDS011;3355;52.882;8.430;2023-04-15T01:23:55;6.00;;;5.30;;
6638;SDS011;3355;52.882;8.430;2023-04-15T01:26:24;8.37;;;6.20;;
6638;SDS011;3355;52.882;8.430;2023-04-15T01:28:51;7.40;;;6.00;;
6638;SDS011;3355;52.882;8.430;2023-04-15T01:31:18;8.90;;;6.00;;
6638;SDS011;3355;52.882;8.430;2023-04-15T01:33:45;6.90;;;6.20;;
6638;SDS011;3355;52.882;8.430;2023-04-15T01:36:12;7.43;;;6.03;;
6638;SDS011;3355;52.882;8.430;2023-04-15T01:38:39;6.80;;;5.60;;
6638;SDS011;3355;52.882;8.430;2023-04-15T01:41:06;6.53;;;5.63;;
6638;SDS011;3355;52.882;8.430;2023-04-15T01:43:34;7.70;;;6.27;;
6638;SDS011;3355;52.882;8.430;2023-04-15T01:46:01;7.13;;;5.53;;
6638;SDS011;3355;52.882;8.430;2023-04-15T01:48:28;7.47;;;6.20;;
6638;SDS011;3355;52.882;8.430;2023-04-15T01:50:54;6.90;;;6.07;;
6638;SDS011;3355;52.882;8.430;2023-04-15T01:53:22;7.63;;;6.00;;
6638;SDS011;3355;52.882;8.430;2023-04-15T01:55:50;10.13;;;6.40;;
6638;SDS011;3355;52.882;8.430;2023-04-15T02:01:04;9.43;;;6.37;;
6638;SDS011;3355;52.882;8.430;2023-04-15T02:03:37;7.87;;;6.70;;
6638;SDS011;3355;52.882;8.430;2023-04-15T02:06:04;7.77;;;6.93;;
6638;SDS011;3355;52.882;8.430;2023-04-15T02:08:32;10.43;;;7.30;;
6638;SDS011;3355;52.882;8.430;2023-04-15T02:10:59;8.93;;;7.30;;
6638;SDS011;3355;52.882;8.430;2023-04-15T02:13:29;9.33;;;7.00;;
6638;SDS011;3355;52.882;8.430;2023-04-15T02:16:00;7.40;;;6.23;;
6638;SDS011;3355;52.882;8.430;2023-04-15T02:18:29;9.70;;;7.23;;
6638;SDS011;3355;52.882;8.430;2023-04-15T02:20:56;12.00;;;7.30;;
6638;SDS011;3355;52.882;8.430;2023-04-15T02:23:23;8.07;;;6.80;;
6638;SDS011;3355;52.882;8.430;2023-04-15T02:25:50;8.60;;;7.17;;
6638;SDS011;3355;52.882;8.430;2023-04-15T02:28:17;9.83;;;7.47;;
6638;SDS011;3355;52.882;8.430;2023-04-15T02:30:46;8.57;;;7.37;;
6638;SDS011;3355;52.882;8.430;2023-04-15T02:33:14;8.63;;;6.30;;
6638;SDS011;3355;52.882;8.430;2023-04-15T02:35:41;10.17;;;7.70;;
6638;SDS011;3355;52.882;8.430;2023-04-15T02:38:09;8.73;;;7.03;;
6638;SDS011;3355;52.882;8.430;2023-04-15T02:40:36;8.50;;;7.60;;
6638;SDS011;3355;52.882;8.430;2023-04-15T02:43:02;11.07;;;8.17;;
6638;SDS011;3355;52.882;8.430;2023-04-15T02:45:31;9.73;;;7.67;;
6638;SDS011;3355;52.882;8.430;2023-04-15T02:47:57;8.80;;;7.17;;
6638;SDS011;3355;52.882;8.430;2023-04-15T02:50:29;8.63;;;7.40;;
6638;SDS011;3355;52.882;8.430;2023-04-15T02:52:56;7.93;;;7.10;;
6638;SDS011;3355;52.882;8.430;2023-04-15T02:55:22;9.40;;;7.10;;
6638;SDS011;3355;52.882;8.430;2023-04-15T02:57:49;9.77;;;7.93;;
6638;SDS011;3355;52.882;8.430;2023-04-15T03:00:16;8.53;;;7.47;;
6638;SDS011;3355;52.882;8.430;2023-04-15T03:02:45;8.90;;;7.57;;
6638;SDS011;3355;52.882;8.430;2023-04-15T03:05:16;9.80;;;7.07;;
6638;SDS011;3355;52.882;8.430;2023-04-15T03:07:44;9.47;;;7.90;;
6638;SDS011;3355;52.882;8.430;2023-04-15T03:10:10;11.73;;;8.00;;
6638;SDS011;3355;52.882;8.430;2023-04-15T03:12:37;11.03;;;8.30;;
6638;SDS011;3355;52.882;8.430;2023-04-15T03:15:05;13.70;;;7.23;;
6638;SDS011;3355;52.882;8.430;2023-04-15T03:17:32;10.20;;;8.03;;
6638;SDS011;3355;52.882;8.430;2023-04-15T03:20:00;11.90;;;8.50;;
6638;SDS011;3355;52.882;8.430;2023-04-15T03:22:26;9.83;;;7.47;;
6638;SDS011;3355;52.882;8.430;2023-04-15T03:24:55;9.20;;;7.87;;
6638;SDS011;3355;52.882;8.430;2023-04-15T03:27:21;10.43;;;8.80;;
6638;SDS011;3355;52.882;8.430;2023-04-15T03:29:48;10.03;;;8.27;;
6638;SDS011;3355;52.882;8.430;2023-04-15T03:32:14;9.70;;;8.00;;
6638;SDS011;3355;52.882;8.430;2023-04-15T03:34:42;10.60;;;8.40;;
6638;SDS011;3355;52.882;8.430;2023-04-15T03:37:08;11.07;;;8.60;;
6638;SDS011;3355;52.882;8.430;2023-04-15T03:39:35;9.00;;;7.77;;
6638;SDS011;3355;52.882;8.430;2023-04-15T03:42:04;9.90;;;8.90;;
6638;SDS011;3355;52.882;8.430;2023-04-15T03:44:31;10.83;;;8.10;;
6638;SDS011;3355;52.882;8.430;2023-04-15T03:46:57;11.23;;;8.70;;
6638;SDS011;3355;52.882;8.430;2023-04-15T03:49:25;10.43;;;7.87;;
6638;SDS011;3355;52.882;8.430;2023-04-15T03:51:51;10.30;;;8.17;;
6638;SDS011;3355;52.882;8.430;2023-04-15T03:54:18;9.67;;;8.07;;
6638;SDS011;3355;52.882;8.430;2023-04-15T03:56:46;10.03;;;8.03;;
6638;SDS011;3355;52.882;8.430;2023-04-15T03:59:14;11.50;;;8.40;;
6638;SDS011;3355;52.882;8.430;2023-04-15T04:01:43;11.00;;;8.93;;
6638;SDS011;3355;52.882;8.430;2023-04-15T04:04:10;12.33;;;9.17;;
6638;SDS011;3355;52.882;8.430;2023-04-15T04:06:37;12.33;;;9.20;;
6638;SDS011;3355;52.882;8.430;2023-04-15T04:09:03;10.90;;;8.63;;
6638;SDS011;3355;52.882;8.430;2023-04-15T04:11:31;9.33;;;7.70;;
6638;SDS011;3355;52.882;8.430;2023-04-15T04:13:58;10.90;;;8.93;;
6638;SDS011;3355;52.882;8.430;2023-04-15T04:16:29;11.07;;;8.77;;
6638;SDS011;3355;52.882;8.430;2023-04-15T04:18:56;11.03;;;8.70;;
6638;SDS011;3355;52.882;8.430;2023-04-15T04:21:22;10.47;;;9.30;;
6638;SDS011;3355;52.882;8.430;2023-04-15T04:23:49;10.33;;;8.57;;
6638;SDS011;3355;52.882;8.430;2023-04-15T04:26:15;11.50;;;9.13;;
6638;SDS011;3355;52.882;8.430;2023-04-15T04:28:42;9.87;;;8.60;;
6638;SDS011;3355;52.882;8.430;2023-04-15T04:31:10;12.00;;;9.73;;
6638;SDS011;3355;52.882;8.430;2023-04-15T04:33:38;13.27;;;9.60;;
6638;SDS011;3355;52.882;8.430;2023-04-15T04:36:06;11.30;;;9.23;;
6638;SDS011;3355;52.882;8.430;2023-04-15T04:38:32;12.37;;;9.80;;
6638;SDS011;3355;52.882;8.430;2023-04-15T04:40:59;10.90;;;8.90;;
6638;SDS011;3355;52.882;8.430;2023-04-15T04:43:26;10.97;;;9.10;;
6638;SDS011;3355;52.882;8.430;2023-04-15T04:45:52;11.93;;;9.53;;
6638;SDS011;3355;52.882;8.430;2023-04-15T04:48:19;12.03;;;9.10;;
6638;SDS011;3355;52.882;8.430;2023-04-15T04:50:48;11.80;;;9.00;;
6638;SDS011;3355;52.882;8.430;2023-04-15T04:53:15;12.53;;;8.90;;
6638;SDS011;3355;52.882;8.430;2023-04-15T04:55:42;11.33;;;9.53;;
6638;SDS011;3355;52.882;8.430;2023-04-15T04:58:08;11.17;;;9.10;;
6638;SDS011;3355;52.882;8.430;2023-04-15T05:00:35;10.97;;;9.27;;
6638;SDS011;3355;52.882;8.430;2023-04-15T05:03:02;14.30;;;10.00;;
6638;SDS011;3355;52.882;8.430;2023-04-15T05:05:29;12.50;;;9.83;;
6638;SDS011;3355;52.882;8.430;2023-04-15T05:07:57;14.83;;;10.00;;
6638;SDS011;3355;52.882;8.430;2023-04-15T05:10:24;11.80;;;9.00;;
6638;SDS011;3355;52.882;8.430;2023-04-15T05:12:51;12.07;;;10.20;;
6638;SDS011;3355;52.882;8.430;2023-04-15T05:15:17;12.90;;;10.83;;
6638;SDS011;3355;52.882;8.430;2023-04-15T05:17:44;10.57;;;8.90;;
6638;SDS011;3355;52.882;8.430;2023-04-15T05:20:11;14.33;;;10.47;;
6638;SDS011;3355;52.882;8.430;2023-04-15T05:22:38;15.73;;;9.70;;
6638;SDS011;3355;52.882;8.430;2023-04-15T05:25:07;12.70;;;10.83;;
6638;SDS011;3355;52.882;8.430;2023-04-15T05:27:34;13.07;;;10.40;;
6638;SDS011;3355;52.882;8.430;2023-04-15T05:30:01;13.03;;;10.00;;
6638;SDS011;3355;52.882;8.430;2023-04-15T05:32:28;12.53;;;9.87;;
6638;SDS011;3355;52.882;8.430;2023-04-15T05:34:55;17.50;;;11.00;;
6638;SDS011;3355;52.882;8.430;2023-04-15T05:37:21;14.17;;;10.00;;
6638;SDS011;3355;52.882;8.430;2023-04-15T05:39:48;12.67;;;10.50;;
6638;SDS011;3355;52.882;8.430;2023-04-15T05:42:16;14.87;;;11.20;;
6638;SDS011;3355;52.882;8.430;2023-04-15T05:44:43;14.60;;;10.87;;
6638;SDS011;3355;52.882;8.430;2023-04-15T05:47:10;12.90;;;9.83;;
6638;SDS011;3355;52.882;8.430;2023-04-15T05:49:37;12.07;;;9.57;;
6638;SDS011;3355;52.882;8.430;2023-04-15T05:52:03;12.80;;;9.87;;
6638;SDS011;3355;52.882;8.430;2023-04-15T05:54:30;12.10;;;10.07;;
6638;SDS011;3355;52.882;8.430;2023-04-15T05:56:57;12.30;;;8.83;;
6638;SDS011;3355;52.882;8.430;2023-04-15T05:59:26;14.80;;;9.97;;
6638;SDS011;3355;52.882;8.430;2023-04-15T06:01:53;13.40;;;10.60;;
6638;SDS011;3355;52.882;8.430;2023-04-15T06:04:20;15.23;;;11.50;;
6638;SDS011;3355;52.882;8.430;2023-04-15T06:06:47;15.00;;;10.80;;
6638;SDS011;3355;52.882;8.430;2023-04-15T06:09:13;13.93;;;10.47;;
6638;SDS011;3355;52.882;8.430;2023-04-15T06:11:40;13.53;;;10.60;;
6638;SDS011;3355;52.882;8.430;2023-04-15T06:14:07;13.60;;;10.40;;
6638;SDS011;3355;52.882;8.430;2023-04-15T06:16:35;12.63;;;9.70;;
6638;SDS011;3355;52.882;8.430;2023-04-15T06:19:02;14.43;;;10.43;;
6638;SDS011;3355;52.882;8.430;2023-04-15T06:21:29;13.17;;;10.57;;
6638;SDS011;3355;52.882;8.430;2023-04-15T06:23:57;13.57;;;10.47;;
6638;SDS011;3355;52.882;8.430;2023-04-15T06:26:26;15.70;;;10.57;;
6638;SDS011;3355;52.882;8.430;2023-04-15T06:28:53;17.10;;;12.77;;
6638;SDS011;3355;52.882;8.430;2023-04-15T06:31:20;12.60;;;10.07;;
6638;SDS011;3355;52.882;8.430;2023-04-15T06:33:48;16.00;;;10.63;;
6638;SDS011;3355;52.882;8.430;2023-04-15T06:36:15;17.10;;;11.67;;
6638;SDS011;3355;52.882;8.430;2023-04-15T06:38:42;15.17;;;10.97;;
6638;SDS011;3355;52.882;8.430;2023-04-15T06:41:08;12.47;;;10.60;;
6638;SDS011;3355;52.882;8.430;2023-04-15T06:43:35;15.73;;;10.90;;
6638;SDS011;3355;52.882;8.430;2023-04-15T06:46:02;14.37;;;10.20;;
6638;SDS011;3355;52.882;8.430;2023-04-15T06:48:29;12.97;;;10.10;;
6638;SDS011;3355;52.882;8.430;2023-04-15T06:50:57;13.70;;;9.10;;
6638;SDS011;3355;52.882;8.430;2023-04-15T06:53:24;12.63;;;10.23;;
6638;SDS011;3355;52.882;8.430;2023-04-15T06:55:51;11.30;;;9.73;;
6638;SDS011;3355;52.882;8.430;2023-04-15T06:58:18;14.90;;;9.50;;
6638;SDS011;3355;52.882;8.430;2023-04-15T07:00:46;12.20;;;9.13;;
6638;SDS011;3355;52.882;8.430;2023-04-15T07:03:18;12.60;;;8.70;;
6638;SDS011;3355;52.882;8.430;2023-04-15T07:05:45;11.83;;;8.97;;
6638;SDS011;3355;52.882;8.430;2023-04-15T07:08:14;15.20;;;8.87;;
6638;SDS011;3355;52.882;8.430;2023-04-15T07:10:41;11.27;;;8.80;;
6638;SDS011;3355;52.882;8.430;2023-04-15T07:13:11;11.07;;;8.87;;
6638;SDS011;3355;52.882;8.430;2023-04-15T07:15:42;12.33;;;9.30;;
6638;SDS011;3355;52.882;8.430;2023-04-15T07:18:12;13.07;;;9.70;;
6638;SDS011;3355;52.882;8.430;2023-04-15T07:20:39;11.57;;;8.93;;
6638;SDS011;3355;52.882;8.430;2023-04-15T07:23:07;10.57;;;8.70;;
6638;SDS011;3355;52.882;8.430;2023-04-15T07:25:35;12.50;;;9.30;;
6638;SDS011;3355;52.882;8.430;2023-04-15T07:28:02;11.73;;;8.80;;
6638;SDS011;3355;52.882;8.430;2023-04-15T07:30:32;12.20;;;9.83;;
6638;SDS011;3355;52.882;8.430;2023-04-15T07:33:00;12.20;;;9.43;;
6638;SDS011;3355;52.882;8.430;2023-04-15T07:35:27;11.23;;;8.40;;
6638;SDS011;3355;52.882;8.430;2023-04-15T07:37:54;13.90;;;9.27;;
6638;SDS011;3355;52.882;8.430;2023-04-15T07:40:21;10.70;;;8.80;;
6638;SDS011;3355;52.882;8.430;2023-04-15T07:42:56;8.43;;;7.40;;
6638;SDS011;3355;52.882;8.430;2023-04-15T07:45:23;13.20;;;9.03;;
6638;SDS011;3355;52.882;8.430;2023-04-15T07:47:54;10.00;;;7.90;;
6638;SDS011;3355;52.882;8.430;2023-04-15T07:50:21;8.33;;;7.40;;
6638;SDS011;3355;52.882;8.430;2023-04-15T07:52:48;9.20;;;7.50;;
6638;SDS011;3355;52.882;8.430;2023-04-15T07:55:16;9.63;;;8.00;;
6638;SDS011;3355;52.882;8.430;2023-04-15T07:57:45;7.80;;;6.60;;
6638;SDS011;3355;52.882;8.430;2023-04-15T08:00:15;7.40;;;5.37;;
6638;SDS011;3355;52.882;8.430;2023-04-15T08:02:42;7.70;;;5.47;;
6638;SDS011;3355;52.882;8.430;2023-04-15T08:05:12;6.90;;;5.50;;
6638;SDS011;3355;52.882;8.430;2023-04-15T08:07:39;5.90;;;4.70;;
6638;SDS011;3355;52.882;8.430;2023-04-15T08:10:06;6.80;;;4.60;;
6638;SDS011;3355;52.882;8.430;2023-04-15T08:12:37;5.50;;;4.40;;
6638;SDS011;3355;52.882;8.430;2023-04-15T08:15:04;7.00;;;4.10;;
6638;SDS011;3355;52.882;8.430;2023-04-15T08:17:36;5.63;;;4.70;;
6638;SDS011;3355;52.882;8.430;2023-04-15T08:20:05;5.50;;;4.30;;
6638;SDS011;3355;52.882;8.430;2023-04-15T08:22:32;4.73;;;4.27;;
6638;SDS011;3355;52.882;8.430;2023-04-15T08:25:06;5.50;;;3.90;;
6638;SDS011;3355;52.882;8.430;2023-04-15T08:27:40;4.60;;;3.50;;
6638;SDS011;3355;52.882;8.430;2023-04-15T08:30:10;4.00;;;3.43;;
6638;SDS011;3355;52.882;8.430;2023-04-15T08:32:42;4.83;;;3.80;;
6638;SDS011;3355;52.882;8.430;2023-04-15T08:35:17;5.23;;;4.13;;
6638;SDS011;3355;52.882;8.430;2023-04-15T08:37:44;4.97;;;3.80;;
6638;SDS011;3355;52.882;8.430;2023-04-15T08:40:12;4.43;;;3.40;;
6638;SDS011;3355;52.882;8.430;2023-04-15T08:42:40;5.00;;;3.43;;
6638;SDS011;3355;52.882;8.430;2023-04-15T08:45:10;4.93;;;3.90;;
6638;SDS011;3355;52.882;8.430;2023-04-15T08:47:37;4.43;;;3.60;;
6638;SDS011;3355;52.882;8.430;2023-04-15T08:50:08;4.60;;;3.30;;
6638;SDS011;3355;52.882;8.430;2023-04-15T08:52:38;5.33;;;3.63;;
6638;SDS011;3355;52.882;8.430;2023-04-15T08:55:05;4.40;;;2.93;;
6638;SDS011;3355;52.882;8.430;2023-04-15T08:57:34;3.50;;;2.87;;
6638;SDS011;3355;52.882;8.430;2023-04-15T09:00:14;4.03;;;3.00;;
6638;SDS011;3355;52.882;8.430;2023-04-15T09:02:41;3.47;;;3.07;;
6638;SDS011;3355;52.882;8.430;2023-04-15T09:05:10;4.10;;;3.23;;
6638;SDS011;3355;52.882;8.430;2023-04-15T09:07:37;3.00;;;2.60;;
6638;SDS011;3355;52.882;8.430;2023-04-15T09:10:06;3.47;;;3.10;;
6638;SDS011;3355;52.882;8.430;2023-04-15T09:12:36;3.37;;;2.30;;
6638;SDS011;3355;52.882;8.430;2023-04-15T09:15:07;2.40;;;2.10;;
6638;SDS011;3355;52.882;8.430;2023-04-15T09:17:43;3.43;;;2.70;;
6638;SDS011;3355;52.882;8.430;2023-04-15T09:23:12;3.60;;;2.17;;
6638;SDS011;3355;52.882;8.430;2023-04-15T09:25:40;3.20;;;2.53;;
6638;SDS011;3355;52.882;8.430;2023-04-15T09:28:08;4.80;;;2.30;;
6638;SDS011;3355;52.882;8.430;2023-04-15T09:30:34;2.90;;;2.30;;
6638;SDS011;3355;52.882;8.430;2023-04-15T09:33:01;2.97;;;2.40;;
6638;SDS011;3355;52.882;8.430;2023-04-15T09:35:32;4.23;;;2.20;;
6638;SDS011;3355;52.882;8.430;2023-04-15T09:38:04;3.33;;;2.80;;
6638;SDS011;3355;52.882;8.430;2023-04-15T09:40:32;2.83;;;2.03;;
6638;SDS011;3355;52.882;8.430;2023-04-15T09:43:00;6.30;;;3.10;;
6638;SDS011;3355;52.882;8.430;2023-04-15T09:45:27;2.60;;;2.00;;
6638;SDS011;3355;52.882;8.430;2023-04-15T09:47:55;3.30;;;2.20;;
6638;SDS011;3355;52.882;8.430;2023-04-15T09:50:22;3.13;;;2.33;;
6638;SDS011;3355;52.882;8.430;2023-04-15T09:52:52;2.73;;;2.40;;
6638;SDS011;3355;52.882;8.430;2023-04-15T09:55:21;4.13;;;2.00;;
6638;SDS011;3355;52.882;8.430;2023-04-15T09:57:47;3.03;;;2.33;;
6638;SDS011;3355;52.882;8.430;2023-04-15T10:00:14;3.40;;;1.80;;
6638;SDS011;3355;52.882;8.430;2023-04-15T10:02:42;3.10;;;2.00;;
6638;SDS011;3355;52.882;8.430;2023-04-15T10:05:12;2.37;;;1.97;;
6638;SDS011;3355;52.882;8.430;2023-04-15T10:07:40;2.53;;;1.60;;
6638;SDS011;3355;52.882;8.430;2023-04-15T10:10:07;2.87;;;2.00;;
6638;SDS011;3355;52.882;8.430;2023-04-15T10:12:37;4.83;;;2.30;;
6638;SDS011;3355;52.882;8.430;2023-04-15T10:15:06;7.10;;;2.47;;
6638;SDS011;3355;52.882;8.430;2023-04-15T10:17:36;2.93;;;2.20;;
6638;SDS011;3355;52.882;8.430;2023-04-15T10:20:06;4.03;;;2.27;;
6638;SDS011;3355;52.882;8.430;2023-04-15T10:22:34;5.40;;;3.30;;
6638;SDS011;3355;52.882;8.430;2023-04-15T10:25:02;2.83;;;2.53;;
6638;SDS011;3355;52.882;8.430;2023-04-15T10:27:54;3.43;;;2.57;;
6638;SDS011;3355;52.882;8.430;2023-04-15T10:30:22;2.30;;;2.10;;
6638;SDS011;3355;52.882;8.430;2023-04-15T10:32:49;2.87;;;2.30;;
6638;SDS011;3355;52.882;8.430;2023-04-15T10:35:22;3.13;;;2.37;;
6638;SDS011;3355;52.882;8.430;2023-04-15T10:37:50;4.37;;;2.93;;
6638;SDS011;3355;52.882;8.430;2023-04-15T10:40:29;4.17;;;3.20;;
6638;SDS011;3355;52.882;8.430;2023-04-15T10:42:58;5.33;;;4.40;;
6638;SDS011;3355;52.882;8.430;2023-04-15T10:45:56;5.53;;;4.50;;
6638;SDS011;3355;52.882;8.430;2023-04-15T10:48:23;3.60;;;3.10;;
6638;SDS011;3355;52.882;8.430;2023-04-15T10:50:54;3.00;;;1.90;;
6638;SDS011;3355;52.882;8.430;2023-04-15T10:53:25;2.90;;;2.53;;
6638;SDS011;3355;52.882;8.430;2023-04-15T10:55:53;3.20;;;2.87;;
6638;SDS011;3355;52.882;8.430;2023-04-15T10:58:25;2.50;;;2.30;;
6638;SDS011;3355;52.882;8.430;2023-04-15T11:01:15;4.23;;;2.77;;
6638;SDS011;3355;52.882;8.430;2023-04-15T11:03:45;2.77;;;2.30;;
6638;SDS011;3355;52.882;8.430;2023-04-15T11:06:14;4.20;;;2.67;;
6638;SDS011;3355;52.882;8.430;2023-04-15T11:08:57;3.33;;;2.60;;
6638;SDS011;3355;52.882;8.430;2023-04-15T11:14:58;6.00;;;2.97;;
6638;SDS011;3355;52.882;8.430;2023-04-15T11:17:26;2.43;;;2.10;;
6638;SDS011;3355;52.882;8.430;2023-04-15T11:19:54;2.63;;;2.20;;
6638;SDS011;3355;52.882;8.430;2023-04-15T11:22:20;3.13;;;2.53;;
6638;SDS011;3355;52.882;8.430;2023-04-15T11:24:52;2.70;;;2.30;;
6638;SDS011;3355;52.882;8.430;2023-04-15T11:27:40;2.90;;;2.50;;
6638;SDS011;3355;52.882;8.430;2023-04-15T11:30:24;5.73;;;2.50;;
6638;SDS011;3355;52.882;8.430;2023-04-15T11:33:03;3.07;;;2.47;;
6638;SDS011;3355;52.882;8.430;2023-04-15T11:35:38;3.40;;;2.57;;
6638;SDS011;3355;52.882;8.430;2023-04-15T11:38:21;4.77;;;3.20;;
6638;SDS011;3355;52.882;8.430;2023-04-15T11:40:49;3.30;;;2.90;;
6638;SDS011;3355;52.882;8.430;2023-04-15T11:43:17;4.50;;;3.13;;
6638;SDS011;3355;52.882;8.430;2023-04-15T11:46:00;6.90;;;3.27;;
6638;SDS011;3355;52.882;8.430;2023-04-15T11:48:53;3.50;;;2.83;;
6638;SDS011;3355;52.882;8.430;2023-04-15T11:51:24;4.10;;;3.13;;
6638;SDS011;3355;52.882;8.430;2023-04-15T11:53:51;5.50;;;4.03;;
6638;SDS011;3355;52.882;8.430;2023-04-15T11:56:19;4.30;;;3.87;;
6638;SDS011;3355;52.882;8.430;2023-04-15T11:58:47;4.83;;;3.53;;
6638;SDS011;3355;52.882;8.430;2023-04-15T12:01:22;6.93;;;6.23;;
6638;SDS011;3355;52.882;8.430;2023-04-15T12:04:09;9.60;;;8.70;;
6638;SDS011;3355;52.882;8.430;2023-04-15T12:06:36;12.33;;;8.80;;
6638;SDS011;3355;52.882;8.430;2023-04-15T12:09:06;13.43;;;12.07;;
6638;SDS011;3355;52.882;8.430;2023-04-15T12:14:35;10.03;;;8.30;;
6638;SDS011;3355;52.882;8.430;2023-04-15T12:17:09;8.07;;;7.07;;
6638;SDS011;3355;52.882;8.430;2023-04-15T12:19:37;5.40;;;4.50;;
6638;SDS011;3355;52.882;8.430;2023-04-15T12:22:16;4.80;;;4.30;;
6638;SDS011;3355;52.882;8.430;2023-04-15T12:24:47;5.80;;;4.40;;
6638;SDS011;3355;52.882;8.430;2023-04-15T12:27:24;5.13;;;4.50;;
6638;SDS011;3355;52.882;8.430;2023-04-15T12:29:54;6.47;;;4.77;;
6638;SDS011;3355;52.882;8.430;2023-04-15T12:32:33;5.20;;;4.70;;
6638;SDS011;3355;52.882;8.430;2023-04-15T12:35:01;5.83;;;4.80;;
6638;SDS011;3355;52.882;8.430;2023-04-15T12:37:28;5.90;;;4.00;;
6638;SDS011;3355;52.882;8.430;2023-04-15T12:39:54;7.07;;;4.57;;
6638;SDS011;3355;52.882;8.430;2023-04-15T12:42:21;6.10;;;4.83;;
6638;SDS011;3355;52.882;8.430;2023-04-15T12:44:48;4.73;;;4.30;;
6638;SDS011;3355;52.882;8.430;2023-04-15T12:47:15;7.83;;;5.90;;
6638;SDS011;3355;52.882;8.430;2023-04-15T12:49:43;6.80;;;6.00;;
6638;SDS011;3355;52.882;8.430;2023-04-15T12:52:11;5.47;;;4.53;;
6638;SDS011;3355;52.882;8.430;2023-04-15T12:54:38;7.10;;;5.10;;
6638;SDS011;3355;52.882;8.430;2023-04-15T12:57:05;10.13;;;6.50;;
6638;SDS011;3355;52.882;8.430;2023-04-15T12:59:31;7.47;;;5.93;;
6638;SDS011;3355;52.882;8.430;2023-04-15T13:01:58;8.03;;;6.17;;
6638;SDS011;3355;52.882;8.430;2023-04-15T13:04:26;8.73;;;6.20;;
6638;SDS011;3355;52.882;8.430;2023-04-15T13:06:56;8.90;;;7.80;;
6638;SDS011;3355;52.882;8.430;2023-04-15T13:09:24;12.50;;;7.20;;
6638;SDS011;3355;52.882;8.430;2023-04-15T13:11:51;9.20;;;7.70;;
6638;SDS011;3355;52.882;8.430;2023-04-15T13:14:18;11.03;;;7.77;;
6638;SDS011;3355;52.882;8.430;2023-04-15T13:16:44;10.50;;;9.30;;
6638;SDS011;3355;52.882;8.430;2023-04-15T13:19:11;11.50;;;8.33;;
6638;SDS011;3355;52.882;8.430;2023-04-15T13:21:38;12.50;;;8.97;;
6638;SDS011;3355;52.882;8.430;2023-04-15T13:24:06;15.27;;;8.50;;
6638;SDS011;3355;52.882;8.430;2023-04-15T13:26:33;13.27;;;8.40;;
6638;SDS011;3355;52.882;8.430;2023-04-15T13:29:00;11.70;;;8.50;;
6638;SDS011;3355;52.882;8.430;2023-04-15T13:31:27;13.50;;;9.33;;
6638;SDS011;3355;52.882;8.430;2023-04-15T13:33:55;13.73;;;8.70;;
6638;SDS011;3355;52.882;8.430;2023-04-15T13:36:23;14.70;;;11.17;;
6638;SDS011;3355;52.882;8.430;2023-04-15T13:38:50;17.77;;;11.17;;
6638;SDS011;3355;52.882;8.430;2023-04-15T13:41:18;13.73;;;10.23;;
6638;SDS011;3355;52.882;8.430;2023-04-15T13:43:45;18.13;;;11.73;;
6638;SDS011;3355;52.882;8.430;2023-04-15T13:46:11;12.57;;;10.23;;
6638;SDS011;3355;52.882;8.430;2023-04-15T13:48:38;14.73;;;11.90;;
6638;SDS011;3355;52.882;8.430;2023-04-15T13:51:05;16.40;;;11.67;;
6638;SDS011;3355;52.882;8.430;2023-04-15T13:53:32;18.17;;;11.57;;
6638;SDS011;3355;52.882;8.430;2023-04-15T13:56:00;17.43;;;12.00;;
6638;SDS011;3355;52.882;8.430;2023-04-15T13:58:28;17.77;;;12.77;;
6638;SDS011;3355;52.882;8.430;2023-04-15T14:00:54;20.47;;;12.63;;
6638;SDS011;3355;52.882;8.430;2023-04-15T14:03:21;17.13;;;12.40;;
6638;SDS011;3355;52.882;8.430;2023-04-15T14:05:48;17.40;;;12.93;;
6638;SDS011;3355;52.882;8.430;2023-04-15T14:08:19;18.43;;;13.13;;
6638;SDS011;3355;52.882;8.430;2023-04-15T14:10:46;25.80;;;14.17;;
6638;SDS011;3355;52.882;8.430;2023-04-15T14:13:13;23.17;;;14.90;;
6638;SDS011;3355;52.882;8.430;2023-04-15T14:15:41;22.87;;;16.10;;
6638;SDS011;3355;52.882;8.430;2023-04-15T14:18:08;21.90;;;16.37;;
6638;SDS011;3355;52.882;8.430;2023-04-15T14:20:35;23.27;;;16.10;;
6638;SDS011;3355;52.882;8.430;2023-04-15T14:23:01;29.17;;;16.03;;
6638;SDS011;3355;52.882;8.430;2023-04-15T14:25:28;25.70;;;18.07;;
6638;SDS011;3355;52.882;8.430;2023-04-15T14:27:56;30.30;;;18.63;;
6638;SDS011;3355;52.882;8.430;2023-04-15T14:30:22;33.07;;;20.80;;
6638;SDS011;3355;52.882;8.430;2023-04-15T14:32:50;34.97;;;21.60;;
6638;SDS011;3355;52.882;8.430;2023-04-15T14:35:17;27.83;;;19.07;;
6638;SDS011;3355;52.882;8.430;2023-04-15T14:37:44;29.17;;;19.37;;
6638;SDS011;3355;52.882;8.430;2023-04-15T14:40:10;33.03;;;20.63;;
6638;SDS011;3355;52.882;8.430;2023-04-15T14:42:37;28.10;;;18.53;;
6638;SDS011;3355;52.882;8.430;2023-04-15T14:45:05;33.17;;;20.20;;
6638;SDS011;3355;52.882;8.430;2023-04-15T14:47:32;33.23;;;22.50;;
6638;SDS011;3355;52.882;8.430;2023-04-15T14:50:01;28.00;;;19.43;;
6638;SDS011;3355;52.882;8.430;2023-04-15T14:52:27;29.23;;;19.27;;
6638;SDS011;3355;52.882;8.430;2023-04-15T14:54:56;26.77;;;19.10;;
6638;SDS011;3355;52.882;8.430;2023-04-15T14:57:23;27.87;;;19.50;;
6638;SDS011;3355;52.882;8.430;2023-04-15T14:59:50;28.93;;;20.00;;
6638;SDS011;3355;52.882;8.430;2023-04-15T15:02:21;32.97;;;21.50;;
6638;SDS011;3355;52.882;8.430;2023-04-15T15:04:48;31.70;;;20.60;;
6638;SDS011;3355;52.882;8.430;2023-04-15T15:07:16;28.53;;;21.67;;
6638;SDS011;3355;52.882;8.430;2023-04-15T15:09:43;29.47;;;20.97;;
6638;SDS011;3355;52.882;8.430;2023-04-15T15:12:10;31.57;;;22.90;;
6638;SDS011;3355;52.882;8.430;2023-04-15T15:14:37;28.10;;;20.47;;
6638;SDS011;3355;52.882;8.430;2023-04-15T15:17:03;31.10;;;23.00;;
6638;SDS011;3355;52.882;8.430;2023-04-15T15:19:30;26.67;;;20.17;;
6638;SDS011;3355;52.882;8.430;2023-04-15T15:21:57;29.77;;;21.20;;
6638;SDS011;3355;52.882;8.430;2023-04-15T15:24:25;27.97;;;21.27;;